sensor_id;sensor_type;location;lat;lon;timestamp;P1;durP1;ratioP1;P2;durP2;ratioP2
65405;SDS011;52016;51.228;-2.322;2022-12-18T00:00:00;24.47;;;16.00;;
65405;SDS011;52016;51.228;-2.322;2022-12-18T00:03:42;23.98;;;14.70;;
65405;SDS011;52016;51.228;-2.322;2022-12-18T00:07:26;23.45;;;13.30;;
65405;SDS011;52016;51.228;-2.322;2022-12-18T00:11:10;23.33;;;13.55;;
65405;SDS011;52016;51.228;-2.322;2022-12-18T00:14:57;24.02;;;12.73;;
65405;SDS011;52016;51.228;-2.322;2022-12-18T00:18:40;20.35;;;12.70;;
65405;SDS011;52016;51.228;-2.322;2022-12-18T00:22:22;19.33;;;12.63;;
65405;SDS011;52016;51.228;-2.322;2022-12-18T00:26:06;16.50;;;11.75;;
65405;SDS011;52016;51.228;-2.322;2022-12-18T00:29:54;17.33;;;10.82;;
65405;SDS011;52016;51.228;-2.322;2022-12-18T00:33:36;13.63;;;9.23;;
65405;SDS011;52016;51.228;-2.322;2022-12-18T00:37:19;37.17;;;21.38;;
65405;SDS011;52016;51.228;-2.322;2022-12-18T00:41:02;16.30;;;10.63;;
65405;SDS011;52016;51.228;-2.322;2022-12-18T00:44:44;15.35;;;10.27;;
65405;SDS011;52016;51.228;-2.322;2022-12-18T00:48:26;15.73;;;8.02;;
65405;SDS011;52016;51.228;-2.322;2022-12-18T00:52:08;14.45;;;9.32;;
65405;SDS011;52016;51.228;-2.322;2022-12-18T00:55:50;20.83;;;14.02;;
65405;SDS011;52016;51.228;-2.322;2022-12-18T00:59:32;15.00;;;9.50;;
65405;SDS011;52016;51.228;-2.322;2022-12-18T01:03:14;15.77;;;8.57;;
65405;SDS011;52016;51.228;-2.322;2022-12-18T01:06:56;11.13;;;7.80;;
65405;SDS011;52016;51.228;-2.322;2022-12-18T01:10:41;25.63;;;18.40;;
65405;SDS011;52016;51.228;-2.322;2022-12-18T01:14:23;20.15;;;13.77;;
65405;SDS011;52016;51.228;-2.322;2022-12-18T01:18:06;11.25;;;7.13;;
65405;SDS011;52016;51.228;-2.322;2022-12-18T01:21:48;10.65;;;6.55;;
65405;SDS011;52016;51.228;-2.322;2022-12-18T01:25:30;12.73;;;7.30;;
65405;SDS011;52016;51.228;-2.322;2022-12-18T01:29:12;11.57;;;7.00;;
65405;SDS011;52016;51.228;-2.322;2022-12-18T01:32:54;12.15;;;7.07;;
65405;SDS011;52016;51.228;-2.322;2022-12-18T01:36:37;9.85;;;6.50;;
65405;SDS011;52016;51.228;-2.322;2022-12-18T01:40:20;13.32;;;6.65;;
65405;SDS011;52016;51.228;-2.322;2022-12-18T01:44:46;14.95;;;6.60;;
65405;SDS011;52016;51.228;-2.322;2022-12-18T01:48:22;12.93;;;6.10;;
65405;SDS011;52016;51.228;-2.322;2022-12-18T01:52:04;10.48;;;6.47;;
65405;SDS011;52016;51.228;-2.322;2022-12-18T01:55:50;11.27;;;6.25;;
65405;SDS011;52016;51.228;-2.322;2022-12-18T02:03:17;29.25;;;19.30;;
65405;SDS011;52016;51.228;-2.322;2022-12-18T02:07:03;11.35;;;6.70;;
65405;SDS011;52016;51.228;-2.322;2022-12-18T02:18:57;9.68;;;6.15;;
65405;SDS011;52016;51.228;-2.322;2022-12-18T02:26:55;12.82;;;6.78;;
65405;SDS011;52016;51.228;-2.322;2022-12-18T02:30:40;10.43;;;6.00;;
65405;SDS011;52016;51.228;-2.322;2022-12-18T02:34:29;11.73;;;6.13;;
65405;SDS011;52016;51.228;-2.322;2022-12-18T02:38:13;12.82;;;6.57;;
65405;SDS011;52016;51.228;-2.322;2022-12-18T02:41:57;12.38;;;7.53;;
65405;SDS011;52016;51.228;-2.322;2022-12-18T02:45:52;12.13;;;7.05;;
65405;SDS011;52016;51.228;-2.322;2022-12-18T02:53:40;11.20;;;6.47;;
65405;SDS011;52016;51.228;-2.322;2022-12-18T03:02:05;11.27;;;6.75;;
65405;SDS011;52016;51.228;-2.322;2022-12-18T03:06:08;10.13;;;6.20;;
65405;SDS011;52016;51.228;-2.322;2022-12-18T03:09:56;11.05;;;6.43;;
65405;SDS011;52016;51.228;-2.322;2022-12-18T03:13:43;10.32;;;6.18;;
65405;SDS011;52016;51.228;-2.322;2022-12-18T03:17:27;11.77;;;6.93;;
65405;SDS011;52016;51.228;-2.322;2022-12-18T03:21:11;12.05;;;6.40;;
65405;SDS011;52016;51.228;-2.322;2022-12-18T03:24:56;11.13;;;6.30;;
65405;SDS011;52016;51.228;-2.322;2022-12-18T03:28:41;9.98;;;5.90;;
65405;SDS011;52016;51.228;-2.322;2022-12-18T03:32:28;8.63;;;5.70;;
65405;SDS011;52016;51.228;-2.322;2022-12-18T03:36:14;11.15;;;6.38;;
65405;SDS011;52016;51.228;-2.322;2022-12-18T03:39:57;12.85;;;6.90;;
65405;SDS011;52016;51.228;-2.322;2022-12-18T03:51:10;11.30;;;6.53;;
65405;SDS011;52016;51.228;-2.322;2022-12-18T03:55:00;8.95;;;6.50;;
65405;SDS011;52016;51.228;-2.322;2022-12-18T03:58:44;11.80;;;6.78;;
65405;SDS011;52016;51.228;-2.322;2022-12-18T04:02:29;11.73;;;6.68;;
65405;SDS011;52016;51.228;-2.322;2022-12-18T04:06:13;11.32;;;6.65;;
65405;SDS011;52016;51.228;-2.322;2022-12-18T04:09:58;10.93;;;6.85;;
65405;SDS011;52016;51.228;-2.322;2022-12-18T04:13:42;12.27;;;7.13;;
65405;SDS011;52016;51.228;-2.322;2022-12-18T04:17:24;13.20;;;7.53;;
65405;SDS011;52016;51.228;-2.322;2022-12-18T04:21:06;12.55;;;7.53;;
65405;SDS011;52016;51.228;-2.322;2022-12-18T04:24:48;10.73;;;6.68;;
65405;SDS011;52016;51.228;-2.322;2022-12-18T04:28:30;13.18;;;6.88;;
65405;SDS011;52016;51.228;-2.322;2022-12-18T04:32:12;13.70;;;7.45;;
65405;SDS011;52016;51.228;-2.322;2022-12-18T04:35:54;13.85;;;7.70;;
65405;SDS011;52016;51.228;-2.322;2022-12-18T04:39:36;16.00;;;7.60;;
65405;SDS011;52016;51.228;-2.322;2022-12-18T04:43:18;10.95;;;7.28;;
65405;SDS011;52016;51.228;-2.322;2022-12-18T04:47:00;15.00;;;7.60;;
65405;SDS011;52016;51.228;-2.322;2022-12-18T04:50:42;16.30;;;7.93;;
65405;SDS011;52016;51.228;-2.322;2022-12-18T04:54:24;26.58;;;8.13;;
65405;SDS011;52016;51.228;-2.322;2022-12-18T04:58:06;12.90;;;6.90;;
65405;SDS011;52016;51.228;-2.322;2022-12-18T05:01:49;16.80;;;7.65;;
65405;SDS011;52016;51.228;-2.322;2022-12-18T05:05:33;15.82;;;7.90;;
65405;SDS011;52016;51.228;-2.322;2022-12-18T05:09:16;12.00;;;7.38;;
65405;SDS011;52016;51.228;-2.322;2022-12-18T05:12:59;15.63;;;7.35;;
65405;SDS011;52016;51.228;-2.322;2022-12-18T05:16:41;15.23;;;7.75;;
65405;SDS011;52016;51.228;-2.322;2022-12-18T05:20:24;13.65;;;8.50;;
65405;SDS011;52016;51.228;-2.322;2022-12-18T05:24:07;14.98;;;7.75;;
65405;SDS011;52016;51.228;-2.322;2022-12-18T05:27:49;12.65;;;8.40;;
65405;SDS011;52016;51.228;-2.322;2022-12-18T05:31:31;15.07;;;7.75;;
65405;SDS011;52016;51.228;-2.322;2022-12-18T05:35:20;12.07;;;7.85;;
65405;SDS011;52016;51.228;-2.322;2022-12-18T05:39:02;16.70;;;9.00;;
65405;SDS011;52016;51.228;-2.322;2022-12-18T05:42:44;16.23;;;9.07;;
65405;SDS011;52016;51.228;-2.322;2022-12-18T05:46:26;20.63;;;11.63;;
65405;SDS011;52016;51.228;-2.322;2022-12-18T05:50:08;14.60;;;9.70;;
65405;SDS011;52016;51.228;-2.322;2022-12-18T05:53:50;16.77;;;10.98;;
65405;SDS011;52016;51.228;-2.322;2022-12-18T05:57:32;19.25;;;10.48;;
65405;SDS011;52016;51.228;-2.322;2022-12-18T06:01:16;17.83;;;10.88;;
65405;SDS011;52016;51.228;-2.322;2022-12-18T06:05:00;19.92;;;11.07;;
65405;SDS011;52016;51.228;-2.322;2022-12-18T06:08:42;23.75;;;12.52;;
65405;SDS011;52016;51.228;-2.322;2022-12-18T06:12:27;22.05;;;11.85;;
65405;SDS011;52016;51.228;-2.322;2022-12-18T06:16:09;24.33;;;12.55;;
65405;SDS011;52016;51.228;-2.322;2022-12-18T06:19:51;25.25;;;12.38;;
65405;SDS011;52016;51.228;-2.322;2022-12-18T06:23:33;21.17;;;13.05;;
65405;SDS011;52016;51.228;-2.322;2022-12-18T06:27:14;21.80;;;11.30;;
65405;SDS011;52016;51.228;-2.322;2022-12-18T06:30:57;20.52;;;11.60;;
65405;SDS011;52016;51.228;-2.322;2022-12-18T06:34:39;20.50;;;12.18;;
65405;SDS011;52016;51.228;-2.322;2022-12-18T06:38:22;20.20;;;11.80;;
65405;SDS011;52016;51.228;-2.322;2022-12-18T06:42:03;18.95;;;11.77;;
65405;SDS011;52016;51.228;-2.322;2022-12-18T06:45:46;21.10;;;11.15;;
65405;SDS011;52016;51.228;-2.322;2022-12-18T06:49:33;20.77;;;11.55;;
65405;SDS011;52016;51.228;-2.322;2022-12-18T06:53:15;17.90;;;11.13;;
65405;SDS011;52016;51.228;-2.322;2022-12-18T06:56:57;17.25;;;10.23;;
65405;SDS011;52016;51.228;-2.322;2022-12-18T07:00:39;20.08;;;10.88;;
65405;SDS011;52016;51.228;-2.322;2022-12-18T07:04:26;19.45;;;11.05;;
65405;SDS011;52016;51.228;-2.322;2022-12-18T07:08:09;18.50;;;10.65;;
65405;SDS011;52016;51.228;-2.322;2022-12-18T07:11:51;25.35;;;11.70;;
65405;SDS011;52016;51.228;-2.322;2022-12-18T07:15:33;21.75;;;10.82;;
65405;SDS011;52016;51.228;-2.322;2022-12-18T07:19:15;39.08;;;11.68;;
65405;SDS011;52016;51.228;-2.322;2022-12-18T07:22:57;16.45;;;9.85;;
65405;SDS011;52016;51.228;-2.322;2022-12-18T07:26:39;17.58;;;9.95;;
65405;SDS011;52016;51.228;-2.322;2022-12-18T07:30:21;18.55;;;10.63;;
65405;SDS011;52016;51.228;-2.322;2022-12-18T07:34:03;16.63;;;9.68;;
65405;SDS011;52016;51.228;-2.322;2022-12-18T07:37:45;17.10;;;9.77;;
65405;SDS011;52016;51.228;-2.322;2022-12-18T07:41:27;16.00;;;9.15;;
65405;SDS011;52016;51.228;-2.322;2022-12-18T07:45:09;13.65;;;8.77;;
65405;SDS011;52016;51.228;-2.322;2022-12-18T07:48:52;17.17;;;9.30;;
65405;SDS011;52016;51.228;-2.322;2022-12-18T07:52:34;18.52;;;9.15;;
65405;SDS011;52016;51.228;-2.322;2022-12-18T07:56:15;14.55;;;9.63;;
65405;SDS011;52016;51.228;-2.322;2022-12-18T08:00:08;16.60;;;9.38;;
65405;SDS011;52016;51.228;-2.322;2022-12-18T08:03:51;14.90;;;8.65;;
65405;SDS011;52016;51.228;-2.322;2022-12-18T08:07:33;14.55;;;7.90;;
65405;SDS011;52016;51.228;-2.322;2022-12-18T08:11:15;14.93;;;8.20;;
65405;SDS011;52016;51.228;-2.322;2022-12-18T08:14:57;13.93;;;8.00;;
65405;SDS011;52016;51.228;-2.322;2022-12-18T08:18:39;13.23;;;8.25;;
65405;SDS011;52016;51.228;-2.322;2022-12-18T08:22:21;14.95;;;7.97;;
65405;SDS011;52016;51.228;-2.322;2022-12-18T08:26:03;13.82;;;8.48;;
65405;SDS011;52016;51.228;-2.322;2022-12-18T08:29:45;14.90;;;8.15;;
65405;SDS011;52016;51.228;-2.322;2022-12-18T08:33:27;13.25;;;8.68;;
65405;SDS011;52016;51.228;-2.322;2022-12-18T08:37:09;13.77;;;9.40;;
65405;SDS011;52016;51.228;-2.322;2022-12-18T08:44:43;18.80;;;9.50;;
65405;SDS011;52016;51.228;-2.322;2022-12-18T08:48:25;17.80;;;9.95;;
65405;SDS011;52016;51.228;-2.322;2022-12-18T08:52:07;19.48;;;10.27;;
65405;SDS011;52016;51.228;-2.322;2022-12-18T08:55:50;19.90;;;10.30;;
65405;SDS011;52016;51.228;-2.322;2022-12-18T08:59:32;22.25;;;9.88;;
65405;SDS011;52016;51.228;-2.322;2022-12-18T09:03:14;16.98;;;9.77;;
65405;SDS011;52016;51.228;-2.322;2022-12-18T09:06:57;16.98;;;10.10;;
65405;SDS011;52016;51.228;-2.322;2022-12-18T09:10:43;18.60;;;10.05;;
65405;SDS011;52016;51.228;-2.322;2022-12-18T09:14:26;14.60;;;10.30;;
65405;SDS011;52016;51.228;-2.322;2022-12-18T09:18:08;14.40;;;9.23;;
65405;SDS011;52016;51.228;-2.322;2022-12-18T09:21:50;15.63;;;10.20;;
65405;SDS011;52016;51.228;-2.322;2022-12-18T09:25:33;21.67;;;10.07;;
65405;SDS011;52016;51.228;-2.322;2022-12-18T09:29:17;18.52;;;10.43;;
65405;SDS011;52016;51.228;-2.322;2022-12-18T09:32:59;18.20;;;11.07;;
65405;SDS011;52016;51.228;-2.322;2022-12-18T09:36:42;18.08;;;10.18;;
65405;SDS011;52016;51.228;-2.322;2022-12-18T09:40:25;16.65;;;11.05;;
65405;SDS011;52016;51.228;-2.322;2022-12-18T09:48:04;18.42;;;11.38;;
65405;SDS011;52016;51.228;-2.322;2022-12-18T09:55:41;18.35;;;12.10;;
65405;SDS011;52016;51.228;-2.322;2022-12-18T09:59:33;22.13;;;12.45;;
65405;SDS011;52016;51.228;-2.322;2022-12-18T10:03:18;24.20;;;13.70;;
65405;SDS011;52016;51.228;-2.322;2022-12-18T10:07:03;24.83;;;14.43;;
65405;SDS011;52016;51.228;-2.322;2022-12-18T10:10:57;20.80;;;13.10;;
65405;SDS011;52016;51.228;-2.322;2022-12-18T10:18:59;21.73;;;14.18;;
65405;SDS011;52016;51.228;-2.322;2022-12-18T10:23:00;23.63;;;14.50;;
65405;SDS011;52016;51.228;-2.322;2022-12-18T10:26:47;23.35;;;15.68;;
65405;SDS011;52016;51.228;-2.322;2022-12-18T10:30:29;21.83;;;13.65;;
65405;SDS011;52016;51.228;-2.322;2022-12-18T10:34:11;22.10;;;13.82;;
65405;SDS011;52016;51.228;-2.322;2022-12-18T10:41:42;20.15;;;13.23;;
65405;SDS011;52016;51.228;-2.322;2022-12-18T10:45:24;21.85;;;13.00;;
65405;SDS011;52016;51.228;-2.322;2022-12-18T10:49:07;23.15;;;13.60;;
65405;SDS011;52016;51.228;-2.322;2022-12-18T10:53:04;19.55;;;13.10;;
65405;SDS011;52016;51.228;-2.322;2022-12-18T10:56:46;25.67;;;13.73;;
65405;SDS011;52016;51.228;-2.322;2022-12-18T11:00:29;22.25;;;14.07;;
65405;SDS011;52016;51.228;-2.322;2022-12-18T11:04:13;18.30;;;12.77;;
65405;SDS011;52016;51.228;-2.322;2022-12-18T11:07:59;23.02;;;14.82;;
65405;SDS011;52016;51.228;-2.322;2022-12-18T11:11:42;22.05;;;14.60;;
65405;SDS011;52016;51.228;-2.322;2022-12-18T11:15:30;20.35;;;14.32;;
65405;SDS011;52016;51.228;-2.322;2022-12-18T11:23:20;22.55;;;14.15;;
65405;SDS011;52016;51.228;-2.322;2022-12-18T11:27:06;21.92;;;14.05;;
65405;SDS011;52016;51.228;-2.322;2022-12-18T11:31:09;20.67;;;13.80;;
65405;SDS011;52016;51.228;-2.322;2022-12-18T11:35:01;21.65;;;13.68;;
65405;SDS011;52016;51.228;-2.322;2022-12-18T11:38:57;18.75;;;12.50;;
65405;SDS011;52016;51.228;-2.322;2022-12-18T11:42:46;18.63;;;13.85;;
65405;SDS011;52016;51.228;-2.322;2022-12-18T11:46:38;18.13;;;12.85;;
65405;SDS011;52016;51.228;-2.322;2022-12-18T11:50:51;19.77;;;12.60;;
65405;SDS011;52016;51.228;-2.322;2022-12-18T11:54:37;19.23;;;13.60;;
65405;SDS011;52016;51.228;-2.322;2022-12-18T11:58:24;21.08;;;12.02;;
65405;SDS011;52016;51.228;-2.322;2022-12-18T12:19:27;15.18;;;9.25;;
65405;SDS011;52016;51.228;-2.322;2022-12-18T12:30:30;12.10;;;8.48;;
65405;SDS011;52016;51.228;-2.322;2022-12-18T12:34:36;11.35;;;6.68;;
65405;SDS011;52016;51.228;-2.322;2022-12-18T12:38:21;10.90;;;7.88;;
65405;SDS011;52016;51.228;-2.322;2022-12-18T12:46:44;6.68;;;5.97;;
65405;SDS011;52016;51.228;-2.322;2022-12-18T12:50:28;5.85;;;5.05;;
65405;SDS011;52016;51.228;-2.322;2022-12-18T12:54:18;6.78;;;5.97;;
65405;SDS011;52016;51.228;-2.322;2022-12-18T13:02:04;7.25;;;5.53;;
65405;SDS011;52016;51.228;-2.322;2022-12-18T13:05:58;4.35;;;3.95;;
65405;SDS011;52016;51.228;-2.322;2022-12-18T13:13:57;6.10;;;3.90;;
65405;SDS011;52016;51.228;-2.322;2022-12-18T13:17:40;4.03;;;3.60;;
65405;SDS011;52016;51.228;-2.322;2022-12-18T13:25:28;4.68;;;3.67;;
65405;SDS011;52016;51.228;-2.322;2022-12-18T13:29:40;3.50;;;2.97;;
65405;SDS011;52016;51.228;-2.322;2022-12-18T13:41:23;2.50;;;2.05;;
65405;SDS011;52016;51.228;-2.322;2022-12-18T13:49:40;3.08;;;2.40;;
65405;SDS011;52016;51.228;-2.322;2022-12-18T13:53:26;4.25;;;2.50;;
65405;SDS011;52016;51.228;-2.322;2022-12-18T13:57:26;3.45;;;2.10;;
65405;SDS011;52016;51.228;-2.322;2022-12-18T14:01:23;4.13;;;2.22;;
65405;SDS011;52016;51.228;-2.322;2022-12-18T14:05:20;2.17;;;1.80;;
65405;SDS011;52016;51.228;-2.322;2022-12-18T14:09:08;2.95;;;1.70;;
65405;SDS011;52016;51.228;-2.322;2022-12-18T14:13:05;3.42;;;2.33;;
65405;SDS011;52016;51.228;-2.322;2022-12-18T14:16:51;2.83;;;1.38;;
65405;SDS011;52016;51.228;-2.322;2022-12-18T14:20:34;3.95;;;2.30;;
65405;SDS011;52016;51.228;-2.322;2022-12-18T14:24:17;1.98;;;1.70;;
65405;SDS011;52016;51.228;-2.322;2022-12-18T14:32:05;1.50;;;1.40;;
65405;SDS011;52016;51.228;-2.322;2022-12-18T14:35:58;1.38;;;1.27;;
65405;SDS011;52016;51.228;-2.322;2022-12-18T14:43:36;1.92;;;1.48;;
65405;SDS011;52016;51.228;-2.322;2022-12-18T14:47:20;2.25;;;1.75;;
65405;SDS011;52016;51.228;-2.322;2022-12-18T14:54:58;1.75;;;1.38;;
65405;SDS011;52016;51.228;-2.322;2022-12-18T14:58:44;3.38;;;1.80;;
65405;SDS011;52016;51.228;-2.322;2022-12-18T15:02:50;3.28;;;1.88;;
65405;SDS011;52016;51.228;-2.322;2022-12-18T15:06:36;2.42;;;1.75;;
65405;SDS011;52016;51.228;-2.322;2022-12-18T15:10:20;6.28;;;2.80;;
65405;SDS011;52016;51.228;-2.322;2022-12-18T15:18:14;2.85;;;2.35;;
65405;SDS011;52016;51.228;-2.322;2022-12-18T15:21:58;1.95;;;1.60;;
65405;SDS011;52016;51.228;-2.322;2022-12-18T15:25:47;4.25;;;2.40;;
65405;SDS011;52016;51.228;-2.322;2022-12-18T15:29:37;2.05;;;1.70;;
65405;SDS011;52016;51.228;-2.322;2022-12-18T15:33:23;1.48;;;1.38;;
65405;SDS011;52016;51.228;-2.322;2022-12-18T15:40:49;2.83;;;1.48;;
65405;SDS011;52016;51.228;-2.322;2022-12-18T15:44:31;2.58;;;1.70;;
65405;SDS011;52016;51.228;-2.322;2022-12-18T15:48:17;2.30;;;2.00;;
65405;SDS011;52016;51.228;-2.322;2022-12-18T15:52:02;9.25;;;2.53;;
65405;SDS011;52016;51.228;-2.322;2022-12-18T15:55:44;3.33;;;1.83;;
65405;SDS011;52016;51.228;-2.322;2022-12-18T15:59:45;2.13;;;1.83;;
65405;SDS011;52016;51.228;-2.322;2022-12-18T16:03:27;5.38;;;3.50;;
65405;SDS011;52016;51.228;-2.322;2022-12-18T16:07:09;5.85;;;4.38;;
65405;SDS011;52016;51.228;-2.322;2022-12-18T16:11:02;7.20;;;4.68;;
65405;SDS011;52016;51.228;-2.322;2022-12-18T16:14:44;7.45;;;4.60;;
65405;SDS011;52016;51.228;-2.322;2022-12-18T16:18:27;5.70;;;4.25;;
65405;SDS011;52016;51.228;-2.322;2022-12-18T16:22:25;8.95;;;5.30;;
65405;SDS011;52016;51.228;-2.322;2022-12-18T16:26:09;7.88;;;4.75;;
65405;SDS011;52016;51.228;-2.322;2022-12-18T16:29:52;7.43;;;5.13;;
65405;SDS011;52016;51.228;-2.322;2022-12-18T16:33:34;6.80;;;4.13;;
65405;SDS011;52016;51.228;-2.322;2022-12-18T16:37:16;7.88;;;4.30;;
65405;SDS011;52016;51.228;-2.322;2022-12-18T16:40:58;5.00;;;3.78;;
65405;SDS011;52016;51.228;-2.322;2022-12-18T16:44:58;10.38;;;7.03;;
65405;SDS011;52016;51.228;-2.322;2022-12-18T16:48:41;7.18;;;4.90;;
65405;SDS011;52016;51.228;-2.322;2022-12-18T16:52:22;11.93;;;4.75;;
65405;SDS011;52016;51.228;-2.322;2022-12-18T16:56:05;5.80;;;3.92;;
65405;SDS011;52016;51.228;-2.322;2022-12-18T16:59:47;11.73;;;7.15;;
65405;SDS011;52016;51.228;-2.322;2022-12-18T17:03:30;9.40;;;6.25;;
65405;SDS011;52016;51.228;-2.322;2022-12-18T17:07:13;6.28;;;3.60;;
65405;SDS011;52016;51.228;-2.322;2022-12-18T17:10:55;9.52;;;5.32;;
65405;SDS011;52016;51.228;-2.322;2022-12-18T17:14:37;12.73;;;5.72;;
65405;SDS011;52016;51.228;-2.322;2022-12-18T17:18:19;5.78;;;4.40;;
65405;SDS011;52016;51.228;-2.322;2022-12-18T17:22:02;8.50;;;5.00;;
65405;SDS011;52016;51.228;-2.322;2022-12-18T17:25:45;7.90;;;5.05;;
65405;SDS011;52016;51.228;-2.322;2022-12-18T17:29:27;6.57;;;3.58;;
65405;SDS011;52016;51.228;-2.322;2022-12-18T17:33:09;10.40;;;3.78;;
65405;SDS011;52016;51.228;-2.322;2022-12-18T17:36:51;7.53;;;3.45;;
65405;SDS011;52016;51.228;-2.322;2022-12-18T17:40:33;6.50;;;3.00;;
65405;SDS011;52016;51.228;-2.322;2022-12-18T17:44:15;7.03;;;4.13;;
65405;SDS011;52016;51.228;-2.322;2022-12-18T17:47:58;10.85;;;4.65;;
65405;SDS011;52016;51.228;-2.322;2022-12-18T17:51:40;8.98;;;5.13;;
65405;SDS011;52016;51.228;-2.322;2022-12-18T17:55:23;13.00;;;7.90;;
65405;SDS011;52016;51.228;-2.322;2022-12-18T17:59:06;8.70;;;5.00;;
65405;SDS011;52016;51.228;-2.322;2022-12-18T18:02:48;7.57;;;4.50;;
65405;SDS011;52016;51.228;-2.322;2022-12-18T18:06:30;11.10;;;6.72;;
65405;SDS011;52016;51.228;-2.322;2022-12-18T18:10:15;10.88;;;7.28;;
65405;SDS011;52016;51.228;-2.322;2022-12-18T18:13:57;10.32;;;6.05;;
65405;SDS011;52016;51.228;-2.322;2022-12-18T18:17:42;11.98;;;6.43;;
65405;SDS011;52016;51.228;-2.322;2022-12-18T18:21:24;7.25;;;5.25;;
65405;SDS011;52016;51.228;-2.322;2022-12-18T18:25:07;7.40;;;5.72;;
65405;SDS011;52016;51.228;-2.322;2022-12-18T18:28:52;6.00;;;3.60;;
65405;SDS011;52016;51.228;-2.322;2022-12-18T18:32:35;7.05;;;4.72;;
65405;SDS011;52016;51.228;-2.322;2022-12-18T18:36:20;6.47;;;4.70;;
65405;SDS011;52016;51.228;-2.322;2022-12-18T18:40:03;5.88;;;4.13;;
65405;SDS011;52016;51.228;-2.322;2022-12-18T18:43:45;4.80;;;2.70;;
65405;SDS011;52016;51.228;-2.322;2022-12-18T18:47:28;10.90;;;5.60;;
65405;SDS011;52016;51.228;-2.322;2022-12-18T18:51:12;15.18;;;10.85;;
65405;SDS011;52016;51.228;-2.322;2022-12-18T18:55:01;6.72;;;4.53;;
65405;SDS011;52016;51.228;-2.322;2022-12-18T18:58:56;6.18;;;4.40;;
65405;SDS011;52016;51.228;-2.322;2022-12-18T19:02:39;10.60;;;5.57;;
65405;SDS011;52016;51.228;-2.322;2022-12-18T19:06:22;8.88;;;6.47;;
65405;SDS011;52016;51.228;-2.322;2022-12-18T19:10:08;7.70;;;4.05;;
65405;SDS011;52016;51.228;-2.322;2022-12-18T19:13:50;10.88;;;6.10;;
65405;SDS011;52016;51.228;-2.322;2022-12-18T19:17:33;25.38;;;12.88;;
65405;SDS011;52016;51.228;-2.322;2022-12-18T19:21:15;16.58;;;8.98;;
65405;SDS011;52016;51.228;-2.322;2022-12-18T19:24:57;6.50;;;3.60;;
65405;SDS011;52016;51.228;-2.322;2022-12-18T19:28:39;7.55;;;4.93;;
65405;SDS011;52016;51.228;-2.322;2022-12-18T19:32:23;4.70;;;2.90;;
65405;SDS011;52016;51.228;-2.322;2022-12-18T19:36:24;21.55;;;10.38;;
65405;SDS011;52016;51.228;-2.322;2022-12-18T19:40:08;23.38;;;10.68;;
65405;SDS011;52016;51.228;-2.322;2022-12-18T19:43:53;18.42;;;8.95;;
65405;SDS011;52016;51.228;-2.322;2022-12-18T19:47:35;12.32;;;5.90;;
65405;SDS011;52016;51.228;-2.322;2022-12-18T19:51:21;8.68;;;3.67;;
65405;SDS011;52016;51.228;-2.322;2022-12-18T19:55:05;7.30;;;5.15;;
65405;SDS011;52016;51.228;-2.322;2022-12-18T19:58:47;9.32;;;5.78;;
65405;SDS011;52016;51.228;-2.322;2022-12-18T20:02:29;4.90;;;3.55;;
65405;SDS011;52016;51.228;-2.322;2022-12-18T20:06:30;5.05;;;2.72;;
65405;SDS011;52016;51.228;-2.322;2022-12-18T20:10:31;6.00;;;4.00;;
65405;SDS011;52016;51.228;-2.322;2022-12-18T20:14:14;7.30;;;4.28;;
65405;SDS011;52016;51.228;-2.322;2022-12-18T20:18:03;5.38;;;3.35;;
65405;SDS011;52016;51.228;-2.322;2022-12-18T20:21:46;6.35;;;4.07;;
65405;SDS011;52016;51.228;-2.322;2022-12-18T20:25:28;5.53;;;2.72;;
65405;SDS011;52016;51.228;-2.322;2022-12-18T20:29:10;3.85;;;3.15;;
65405;SDS011;52016;51.228;-2.322;2022-12-18T20:32:52;5.82;;;3.88;;
65405;SDS011;52016;51.228;-2.322;2022-12-18T20:36:34;3.00;;;2.28;;
65405;SDS011;52016;51.228;-2.322;2022-12-18T20:40:19;4.65;;;2.67;;
65405;SDS011;52016;51.228;-2.322;2022-12-18T20:44:00;5.90;;;4.57;;
65405;SDS011;52016;51.228;-2.322;2022-12-18T20:47:43;7.45;;;4.57;;
65405;SDS011;52016;51.228;-2.322;2022-12-18T20:51:25;7.32;;;5.10;;
65405;SDS011;52016;51.228;-2.322;2022-12-18T20:55:08;10.35;;;5.60;;
65405;SDS011;52016;51.228;-2.322;2022-12-18T20:58:50;10.80;;;5.07;;
65405;SDS011;52016;51.228;-2.322;2022-12-18T21:02:35;3.17;;;2.45;;
65405;SDS011;52016;51.228;-2.322;2022-12-18T21:06:18;2.60;;;1.80;;
65405;SDS011;52016;51.228;-2.322;2022-12-18T21:10:02;2.33;;;1.40;;
65405;SDS011;52016;51.228;-2.322;2022-12-18T21:13:44;3.83;;;1.67;;
65405;SDS011;52016;51.228;-2.322;2022-12-18T21:17:26;2.25;;;1.33;;
65405;SDS011;52016;51.228;-2.322;2022-12-18T21:21:09;4.95;;;1.85;;
65405;SDS011;52016;51.228;-2.322;2022-12-18T21:24:52;6.95;;;2.35;;
65405;SDS011;52016;51.228;-2.322;2022-12-18T21:28:34;5.55;;;1.80;;
65405;SDS011;52016;51.228;-2.322;2022-12-18T21:32:17;8.63;;;2.10;;
65405;SDS011;52016;51.228;-2.322;2022-12-18T21:36:02;5.80;;;2.20;;
65405;SDS011;52016;51.228;-2.322;2022-12-18T21:39:45;17.40;;;4.95;;
65405;SDS011;52016;51.228;-2.322;2022-12-18T21:43:28;14.90;;;6.22;;
65405;SDS011;52016;51.228;-2.322;2022-12-18T21:47:28;10.20;;;3.90;;
65405;SDS011;52016;51.228;-2.322;2022-12-18T21:51:11;10.35;;;3.80;;
65405;SDS011;52016;51.228;-2.322;2022-12-18T21:54:53;8.50;;;2.30;;
65405;SDS011;52016;51.228;-2.322;2022-12-18T21:58:35;11.27;;;3.35;;
65405;SDS011;52016;51.228;-2.322;2022-12-18T22:02:18;4.57;;;2.20;;
65405;SDS011;52016;51.228;-2.322;2022-12-18T22:06:01;6.28;;;3.33;;
65405;SDS011;52016;51.228;-2.322;2022-12-18T22:13:31;8.05;;;2.53;;
65405;SDS011;52016;51.228;-2.322;2022-12-18T22:17:14;4.85;;;2.88;;
65405;SDS011;52016;51.228;-2.322;2022-12-18T22:21:03;6.15;;;2.33;;
65405;SDS011;52016;51.228;-2.322;2022-12-18T22:24:46;7.40;;;2.38;;
65405;SDS011;52016;51.228;-2.322;2022-12-18T22:28:28;6.95;;;2.80;;
65405;SDS011;52016;51.228;-2.322;2022-12-18T22:32:29;7.18;;;2.70;;
65405;SDS011;52016;51.228;-2.322;2022-12-18T22:36:12;7.00;;;2.22;;
65405;SDS011;52016;51.228;-2.322;2022-12-18T22:39:56;6.20;;;2.22;;
65405;SDS011;52016;51.228;-2.322;2022-12-18T22:43:39;7.90;;;2.38;;
65405;SDS011;52016;51.228;-2.322;2022-12-18T22:47:21;7.45;;;2.40;;
65405;SDS011;52016;51.228;-2.322;2022-12-18T22:51:13;4.00;;;1.88;;
65405;SDS011;52016;51.228;-2.322;2022-12-18T22:54:56;4.50;;;2.00;;
65405;SDS011;52016;51.228;-2.322;2022-12-18T22:58:38;5.35;;;1.95;;
65405;SDS011;52016;51.228;-2.322;2022-12-18T23:02:20;5.75;;;1.70;;
65405;SDS011;52016;51.228;-2.322;2022-12-18T23:06:04;3.92;;;2.10;;
65405;SDS011;52016;51.228;-2.322;2022-12-18T23:09:48;2.85;;;1.65;;
65405;SDS011;52016;51.228;-2.322;2022-12-18T23:13:38;3.53;;;2.22;;
65405;SDS011;52016;51.228;-2.322;2022-12-18T23:17:21;3.20;;;1.63;;
65405;SDS011;52016;51.228;-2.322;2022-12-18T23:21:04;4.97;;;2.03;;
65405;SDS011;52016;51.228;-2.322;2022-12-18T23:24:47;2.42;;;1.80;;
65405;SDS011;52016;51.228;-2.322;2022-12-18T23:28:30;1.27;;;0.90;;
65405;SDS011;52016;51.228;-2.322;2022-12-18T23:32:13;2.25;;;1.00;;
65405;SDS011;52016;51.228;-2.322;2022-12-18T23:35:59;1.63;;;0.98;;
65405;SDS011;52016;51.228;-2.322;2022-12-18T23:39:41;1.60;;;0.85;;
65405;SDS011;52016;51.228;-2.322;2022-12-18T23:43:24;2.15;;;0.90;;
65405;SDS011;52016;51.228;-2.322;2022-12-18T23:47:07;0.80;;;0.80;;
65405;SDS011;52016;51.228;-2.322;2022-12-18T23:50:49;2.72;;;1.00;;
65405;SDS011;52016;51.228;-2.322;2022-12-18T23:54:31;1.60;;;0.90;;
65405;SDS011;52016;51.228;-2.322;2022-12-18T23:58:15;3.83;;;0.95;;
